Decoded Metar for VNKT (KATHMANDU in NEPAL) (IATA:KTM) | Meteo·Mobile Aviation Weather
aviador You're here:

VNKT Decoded Metar

KATHMANDU in NEPAL
Report Time2019-03-23 20:50:00
UTC Time2019-03-23 21:07:19
Flight Rules mvfr MVFR
Wind070° at 04 kt
W.Decomp.*RWY 02: 2.6 kt HW 3.1 kt RCW
W.Rank070° ranks 24
Current wind is above 070° avg. (3.9)
Visibility5000 m
Phenomena:Mist
Clouds:Few 015 Hf
Expected CloudBase > 1,600 ft AGL from Temp-Dew spread
CeilingNone
Temp13°C (ISA +7)
Dew Point09°C (77% RH)
AAT11.4°C
QNH1016 hPa
Density Alt5,243 ft
Elevation4,386 ft
Report Wrong Elevation
Raw Report
VNKT 232050Z 07004KT 5000 BR FEW015 13/09 Q1016 NOSIG=

Extra information for VNKT:More info

Metar Taf Metar & Taf Last 4 Metars F.Rules Stats Wind Profile Meteogram Temp Stats Airport Information Weather charts Add Link Nearby VenuesMetar ALERT Operation Metar Decoded Social comments